createdAt,value
2018-06-13T00:01:52.144Z,5.50
2018-06-13T00:04:19.469Z,5.20
2018-06-13T00:06:47.056Z,4.40
2018-06-13T00:09:14.390Z,4.30
2018-06-13T00:11:42.064Z,4.80
2018-06-13T00:14:09.631Z,4.17
2018-06-13T00:16:37.142Z,4.50
2018-06-13T00:19:04.577Z,4.63
2018-06-13T00:21:31.882Z,3.77
2018-06-13T00:23:59.338Z,4.50
2018-06-13T00:26:26.800Z,4.40
2018-06-13T00:28:54.474Z,4.37
2018-06-13T00:33:55.888Z,4.10
2018-06-13T00:36:23.202Z,4.00
2018-06-13T00:38:50.575Z,4.77
2018-06-13T00:41:17.902Z,4.37
2018-06-13T00:43:45.319Z,5.13
2018-06-13T00:46:12.720Z,4.40
2018-06-13T00:48:40.166Z,5.70
2018-06-13T00:51:07.495Z,4.47
2018-06-13T00:53:34.810Z,4.30
2018-06-13T00:56:07.967Z,4.20
2018-06-13T00:58:35.393Z,4.03
2018-06-13T01:01:02.742Z,4.10
2018-06-13T01:03:30.091Z,4.00
2018-06-13T01:05:57.566Z,3.93
2018-06-13T01:08:25.068Z,4.00
2018-06-13T01:10:52.423Z,4.40
2018-06-13T01:13:19.727Z,4.17
2018-06-13T01:15:47.187Z,4.03
2018-06-13T01:18:14.517Z,3.80
2018-06-13T01:20:41.992Z,4.30
2018-06-13T01:23:09.352Z,4.13
2018-06-13T01:25:36.803Z,3.80
2018-06-13T01:28:04.371Z,4.23
2018-06-13T01:30:31.716Z,3.40
2018-06-13T01:32:59.080Z,3.53
2018-06-13T01:35:26.397Z,4.00
2018-06-13T01:37:53.815Z,3.47
2018-06-13T01:40:21.127Z,4.33
2018-06-13T01:42:48.919Z,4.00
2018-06-13T01:45:16.359Z,3.60
2018-06-13T01:47:43.895Z,3.80
2018-06-13T01:50:11.302Z,3.50
2018-06-13T01:52:38.811Z,3.53
2018-06-13T01:55:06.187Z,3.20
2018-06-13T01:57:33.719Z,3.73
2018-06-13T02:00:01.095Z,3.17
2018-06-13T02:02:28.662Z,3.90
2018-06-13T02:04:56.122Z,4.33
2018-06-13T02:07:23.451Z,3.40
2018-06-13T02:09:50.832Z,4.37
2018-06-13T02:12:18.279Z,3.60
2018-06-13T02:14:45.578Z,3.60
2018-06-13T02:17:12.972Z,3.80
2018-06-13T02:19:40.338Z,3.20
2018-06-13T02:22:07.656Z,3.20
2018-06-13T02:24:34.955Z,3.40
2018-06-13T02:27:02.391Z,3.43
2018-06-13T02:29:29.668Z,3.30
2018-06-13T02:31:57.011Z,3.97
2018-06-13T02:34:24.313Z,3.97
2018-06-13T02:36:51.831Z,3.50
2018-06-13T02:39:19.158Z,3.20
2018-06-13T02:41:46.558Z,5.53
2018-06-13T02:44:13.847Z,3.57
2018-06-13T02:46:41.331Z,3.57
2018-06-13T02:49:08.803Z,3.50
2018-06-13T02:51:36.169Z,3.10
2018-06-13T02:54:03.483Z,3.97
2018-06-13T02:56:30.860Z,4.23
2018-06-13T02:58:58.255Z,3.53
2018-06-13T03:01:25.795Z,3.90
2018-06-13T03:03:53.215Z,4.63
2018-06-13T03:06:20.568Z,4.30
2018-06-13T03:08:47.937Z,3.40
2018-06-13T03:11:15.267Z,3.70
2018-06-13T03:13:42.598Z,3.53
2018-06-13T03:16:09.950Z,4.73
2018-06-13T03:18:37.287Z,3.97
2018-06-13T03:21:04.588Z,3.83
2018-06-13T03:23:32.186Z,3.20
2018-06-13T03:25:59.481Z,4.17
2018-06-13T03:28:26.797Z,4.30
2018-06-13T03:30:54.094Z,4.33
2018-06-13T03:33:21.499Z,4.23
2018-06-13T03:35:48.815Z,3.60
2018-06-13T03:38:16.198Z,4.43
2018-06-13T03:40:43.642Z,3.90
2018-06-13T03:43:11.137Z,3.60
2018-06-13T03:45:38.660Z,4.23
2018-06-13T03:48:05.960Z,4.57
2018-06-13T03:50:33.320Z,3.60
2018-06-13T03:53:00.619Z,4.30
2018-06-13T03:55:28.087Z,4.37
2018-06-13T03:57:55.491Z,4.33
2018-06-13T04:00:23.196Z,4.90
2018-06-13T04:02:50.519Z,3.80
2018-06-13T04:05:17.840Z,4.00
2018-06-13T04:07:45.275Z,3.77
2018-06-13T04:10:12.598Z,4.40
2018-06-13T04:12:39.935Z,4.10
2018-06-13T04:15:07.265Z,5.00
2018-06-13T04:17:34.611Z,3.60
2018-06-13T04:20:02.359Z,3.70
2018-06-13T04:22:29.996Z,3.50
2018-06-13T04:24:57.366Z,3.87
2018-06-13T04:27:24.698Z,3.40
2018-06-13T04:29:52.088Z,3.43
2018-06-13T04:32:19.731Z,3.67
2018-06-13T04:34:47.067Z,3.47
2018-06-13T04:37:14.420Z,3.17
2018-06-13T04:39:41.933Z,3.50
2018-06-13T04:42:09.301Z,3.33
2018-06-13T04:44:36.821Z,2.60
2018-06-13T04:47:04.377Z,3.90
2018-06-13T04:49:31.678Z,4.23
2018-06-13T04:51:59.081Z,5.10
2018-06-13T04:54:26.418Z,2.83
2018-06-13T04:56:53.720Z,2.87
2018-06-13T04:59:21.143Z,2.63
2018-06-13T05:01:48.459Z,2.83
2018-06-13T05:04:15.842Z,3.33
2018-06-13T05:06:43.202Z,3.07
2018-06-13T05:09:10.664Z,3.77
2018-06-13T05:11:37.998Z,4.40
2018-06-13T05:14:05.350Z,3.40
2018-06-13T05:16:32.715Z,3.37
2018-06-13T05:19:00.068Z,2.83
2018-06-13T05:21:27.474Z,3.20
2018-06-13T05:23:54.871Z,4.07
2018-06-13T05:26:22.439Z,3.40
2018-06-13T05:28:49.804Z,3.70
2018-06-13T05:31:17.134Z,5.47
2018-06-13T05:33:44.486Z,3.90
2018-06-13T05:36:11.788Z,4.00
2018-06-13T05:38:39.121Z,4.20
2018-06-13T05:41:06.526Z,4.20
2018-06-13T05:43:33.848Z,3.50
2018-06-13T05:46:01.147Z,3.93
2018-06-13T05:48:28.439Z,3.70
2018-06-13T05:50:55.787Z,3.60
2018-06-13T05:53:23.216Z,3.60
2018-06-13T05:55:50.575Z,4.03
2018-06-13T05:58:17.960Z,4.00
2018-06-13T06:00:45.287Z,3.90
2018-06-13T06:03:12.753Z,3.87
2018-06-13T06:05:40.353Z,3.83
2018-06-13T06:08:08.076Z,4.00
2018-06-13T06:10:35.658Z,4.17
2018-06-13T06:13:02.943Z,3.57
2018-06-13T06:15:30.359Z,3.70
2018-06-13T06:17:57.652Z,3.83
2018-06-13T06:20:24.979Z,3.53
2018-06-13T06:22:52.291Z,3.70
2018-06-13T06:25:19.660Z,3.90
2018-06-13T06:27:47.132Z,4.50
2018-06-13T06:30:14.563Z,3.50
2018-06-13T06:32:41.923Z,3.53
2018-06-13T06:35:09.443Z,5.40
2018-06-13T06:37:36.771Z,2.83
2018-06-13T06:40:04.363Z,3.53
2018-06-13T06:42:31.918Z,3.47
2018-06-13T06:45:00.066Z,3.30
2018-06-13T06:47:27.465Z,2.60
2018-06-13T06:49:54.824Z,3.40
2018-06-13T06:52:22.193Z,3.03
2018-06-13T06:54:49.540Z,2.10
2018-06-13T06:57:17.014Z,2.90
2018-06-13T06:59:44.424Z,3.30
2018-06-13T07:02:11.765Z,2.90
2018-06-13T07:04:39.753Z,3.60
2018-06-13T07:07:07.257Z,2.90
2018-06-13T07:09:34.617Z,2.70
2018-06-13T07:12:02.008Z,2.80
2018-06-13T07:14:29.382Z,3.37
2018-06-13T07:16:56.687Z,2.83
2018-06-13T07:19:24.180Z,3.40
2018-06-13T07:21:51.867Z,2.70
2018-06-13T07:24:19.328Z,2.77
2018-06-13T07:26:46.663Z,3.47
2018-06-13T07:29:14.156Z,3.40
2018-06-13T07:31:41.514Z,3.33
2018-06-13T07:34:08.839Z,3.23
2018-06-13T07:36:36.333Z,2.60
2018-06-13T07:39:05.343Z,3.33
2018-06-13T07:41:32.868Z,3.10
2018-06-13T07:44:00.679Z,2.83
2018-06-13T07:46:28.073Z,3.00
2018-06-13T07:48:55.435Z,2.63
2018-06-13T07:51:22.800Z,2.40
2018-06-13T07:53:50.148Z,2.83
2018-06-13T07:56:17.468Z,2.10
2018-06-13T07:58:44.819Z,2.17
2018-06-13T08:01:12.217Z,2.17
2018-06-13T08:03:39.762Z,2.20
2018-06-13T08:06:07.173Z,1.63
2018-06-13T08:08:34.576Z,1.83
2018-06-13T08:11:01.940Z,2.30
2018-06-13T08:13:29.341Z,2.57
2018-06-13T08:15:56.692Z,2.53
2018-06-13T08:18:24.044Z,1.77
2018-06-13T08:20:51.669Z,2.20
2018-06-13T08:23:19.640Z,2.57
2018-06-13T08:25:47.410Z,2.33
2018-06-13T08:28:15.180Z,2.50
2018-06-13T08:30:42.588Z,2.27
2018-06-13T08:33:10.077Z,2.87
2018-06-13T08:35:37.471Z,2.73
2018-06-13T08:38:04.922Z,2.00
2018-06-13T08:40:32.296Z,2.90
2018-06-13T08:42:59.693Z,3.30
2018-06-13T08:45:27.446Z,2.90
2018-06-13T08:47:54.849Z,2.50
2018-06-13T08:50:22.216Z,3.27
2018-06-13T08:52:49.673Z,2.70
2018-06-13T08:55:17.068Z,2.53
2018-06-13T08:57:44.433Z,2.80
2018-06-13T09:00:12.126Z,3.07
2018-06-13T09:02:39.685Z,2.77
2018-06-13T09:05:07.115Z,3.20
2018-06-13T09:07:34.619Z,3.10
2018-06-13T09:10:01.991Z,3.00
2018-06-13T09:12:29.440Z,2.70
2018-06-13T09:14:56.789Z,2.90
2018-06-13T09:17:24.141Z,2.80
2018-06-13T09:19:51.486Z,2.70
2018-06-13T09:22:18.838Z,2.27
2018-06-13T09:24:46.166Z,2.70
2018-06-13T09:27:13.663Z,3.20
2018-06-13T09:29:41.109Z,2.70
2018-06-13T09:32:08.511Z,2.60
2018-06-13T09:34:35.873Z,2.43
2018-06-13T09:37:03.507Z,3.40
2018-06-13T09:39:30.875Z,2.23
2018-06-13T09:42:01.097Z,2.30
2018-06-13T09:44:28.753Z,2.93
2018-06-13T09:46:56.108Z,2.43
2018-06-13T09:49:23.465Z,2.13
2018-06-13T09:51:50.846Z,1.83
2018-06-13T09:54:18.176Z,2.27
2018-06-13T09:56:45.570Z,1.90
2018-06-13T09:59:14.527Z,2.20
2018-06-13T10:01:48.628Z,1.83
2018-06-13T10:04:15.990Z,2.50
2018-06-13T10:06:43.308Z,2.30
2018-06-13T10:09:10.631Z,2.30
2018-06-13T10:11:38.041Z,2.20
2018-06-13T10:14:05.483Z,2.57
2018-06-13T10:16:32.858Z,2.40
2018-06-13T10:19:00.184Z,2.63
2018-06-13T10:21:27.532Z,2.50
2018-06-13T10:23:54.943Z,2.80
2018-06-13T10:26:22.388Z,2.47
2018-06-13T10:28:49.799Z,2.20
2018-06-13T10:31:17.112Z,2.77
2018-06-13T10:33:44.478Z,2.50
2018-06-13T10:36:12.106Z,2.60
2018-06-13T10:38:39.570Z,2.57
2018-06-13T10:41:07.017Z,2.57
2018-06-13T10:43:34.423Z,3.07
2018-06-13T10:46:01.944Z,2.37
2018-06-13T10:48:29.285Z,2.60
2018-06-13T10:50:56.848Z,2.77
2018-06-13T10:53:24.386Z,1.93
2018-06-13T10:55:51.739Z,2.93
2018-06-13T10:58:19.059Z,2.30
2018-06-13T11:00:46.484Z,2.40
2018-06-13T11:03:13.836Z,2.23
2018-06-13T11:05:41.378Z,4.13
2018-06-13T11:08:08.838Z,1.90
2018-06-13T11:10:36.164Z,2.37
2018-06-13T11:13:03.504Z,2.57
2018-06-13T11:15:30.908Z,2.50
2018-06-13T11:17:58.237Z,2.20
2018-06-13T11:20:25.629Z,2.63
2018-06-13T11:22:52.979Z,2.17
2018-06-13T11:25:20.299Z,2.47
2018-06-13T11:27:47.703Z,2.50
2018-06-13T11:30:15.119Z,2.23
2018-06-13T11:32:42.534Z,2.33
2018-06-13T11:35:09.952Z,2.67
2018-06-13T11:37:37.872Z,2.60
2018-06-13T11:40:05.563Z,2.10
2018-06-13T11:42:32.900Z,1.97
2018-06-13T11:45:00.254Z,2.87
2018-06-13T11:47:27.623Z,2.00
2018-06-13T11:49:55.002Z,2.13
2018-06-13T11:52:22.529Z,2.17
2018-06-13T11:54:49.887Z,2.40
2018-06-13T11:57:17.557Z,2.67
2018-06-13T11:59:44.920Z,2.60
2018-06-13T12:02:12.246Z,2.70
2018-06-13T12:04:39.841Z,2.97
2018-06-13T12:07:07.318Z,3.60
2018-06-13T12:09:34.699Z,4.10
2018-06-13T12:12:02.266Z,2.73
2018-06-13T12:14:29.740Z,3.37
2018-06-13T12:16:57.097Z,2.87
2018-06-13T12:19:24.468Z,3.30
2018-06-13T12:21:51.862Z,2.60
2018-06-13T12:24:19.450Z,2.90
2018-06-13T12:26:46.931Z,3.33
2018-06-13T12:29:14.475Z,3.10
2018-06-13T12:31:41.879Z,2.50
2018-06-13T12:34:09.407Z,3.17
2018-06-13T12:36:36.887Z,2.70
2018-06-13T12:39:06.152Z,2.50
2018-06-13T12:41:33.864Z,2.10
2018-06-13T12:44:01.175Z,2.30
2018-06-13T12:46:28.654Z,1.80
2018-06-13T12:48:55.984Z,1.90
2018-06-13T12:51:23.544Z,2.30
2018-06-13T12:53:51.331Z,1.83
2018-06-13T12:56:18.673Z,2.37
2018-06-13T12:58:46.052Z,2.90
2018-06-13T13:01:13.331Z,2.10
2018-06-13T13:03:40.667Z,2.10
2018-06-13T13:06:07.991Z,2.20
2018-06-13T13:08:35.460Z,2.03
2018-06-13T13:11:02.898Z,1.80
2018-06-13T13:13:30.359Z,2.27
2018-06-13T13:15:57.689Z,2.33
2018-06-13T13:18:25.283Z,1.90
2018-06-13T13:20:52.626Z,2.43
2018-06-13T13:23:19.967Z,2.03
2018-06-13T13:25:47.364Z,2.47
2018-06-13T13:28:14.915Z,2.50
2018-06-13T13:30:42.339Z,2.77
2018-06-13T13:33:09.764Z,1.57
2018-06-13T13:35:37.096Z,2.20
2018-06-13T13:38:04.515Z,1.50
2018-06-13T13:40:32.064Z,1.63
2018-06-13T13:42:59.433Z,1.63
2018-06-13T13:45:26.940Z,1.97
2018-06-13T13:47:54.364Z,1.60
2018-06-13T13:50:21.706Z,2.07
2018-06-13T13:52:49.256Z,2.20
2018-06-13T13:55:16.839Z,1.70
2018-06-13T13:57:44.183Z,2.20
2018-06-13T14:00:11.536Z,1.73
2018-06-13T14:02:38.864Z,1.57
2018-06-13T14:05:06.232Z,2.43
2018-06-13T14:07:33.750Z,1.83
2018-06-13T14:10:01.108Z,2.50
2018-06-13T14:12:28.461Z,1.80
2018-06-13T14:14:55.843Z,2.17
2018-06-13T14:17:23.180Z,2.10
2018-06-13T14:19:50.628Z,2.50
2018-06-13T14:22:18.111Z,2.10
2018-06-13T14:24:45.583Z,2.33
2018-06-13T14:27:13.096Z,2.37
2018-06-13T14:29:40.516Z,1.80
2018-06-13T14:32:07.932Z,2.80
2018-06-13T14:34:35.432Z,2.30
2018-06-13T14:37:02.760Z,1.60
2018-06-13T14:39:30.088Z,1.73
2018-06-13T14:41:57.661Z,1.77
2018-06-13T14:44:25.040Z,1.60
2018-06-13T14:46:52.488Z,3.20
2018-06-13T14:49:19.842Z,3.33
2018-06-13T14:51:51.462Z,1.87
2018-06-13T14:54:18.843Z,6.30
2018-06-13T14:56:46.206Z,2.93
2018-06-13T14:59:13.588Z,1.90
2018-06-13T15:01:40.911Z,2.00
2018-06-13T15:04:08.527Z,1.97
2018-06-13T15:06:35.922Z,1.97
2018-06-13T15:09:04.394Z,1.80
2018-06-13T15:11:31.764Z,2.00
2018-06-13T15:13:59.112Z,2.53
2018-06-13T15:16:26.424Z,2.63
2018-06-13T15:18:53.820Z,2.37
2018-06-13T15:21:21.344Z,2.17
2018-06-13T15:23:48.744Z,2.10
2018-06-13T15:26:16.131Z,1.97
2018-06-13T15:28:43.515Z,2.33
2018-06-13T15:31:10.872Z,1.77
2018-06-13T15:33:38.248Z,2.30
2018-06-13T15:36:05.637Z,1.67
2018-06-13T15:38:33.077Z,1.77
2018-06-13T15:41:00.440Z,1.97
2018-06-13T15:43:27.860Z,1.90
2018-06-13T15:45:55.799Z,2.07
2018-06-13T15:48:23.387Z,2.80
2018-06-13T15:50:50.899Z,1.80
2018-06-13T15:53:18.217Z,2.13
2018-06-13T15:55:45.813Z,2.10
2018-06-13T15:58:13.135Z,2.17
2018-06-13T16:00:40.461Z,2.50
2018-06-13T16:03:08.202Z,2.03
2018-06-13T16:05:35.820Z,1.53
2018-06-13T16:08:03.157Z,1.80
2018-06-13T16:10:30.602Z,2.70
2018-06-13T16:12:57.931Z,2.33
2018-06-13T16:15:25.271Z,2.87
2018-06-13T16:17:52.639Z,1.87
2018-06-13T16:20:20.028Z,2.10
2018-06-13T16:22:47.487Z,3.27
2018-06-13T16:25:14.843Z,1.97
2018-06-13T16:27:42.159Z,2.30
2018-06-13T16:30:09.625Z,2.20
2018-06-13T16:32:37.119Z,2.97
2018-06-13T16:35:04.757Z,2.83
2018-06-13T16:37:32.314Z,2.50
2018-06-13T16:39:59.979Z,2.70
2018-06-13T16:42:27.335Z,2.83
2018-06-13T16:44:54.681Z,2.00
2018-06-13T16:47:22.040Z,1.60
2018-06-13T16:49:49.393Z,2.40
2018-06-13T16:52:22.403Z,2.77
2018-06-13T16:54:55.375Z,2.50
2018-06-13T16:57:22.748Z,2.23
2018-06-13T16:59:50.136Z,2.53
2018-06-13T17:02:17.591Z,2.50
2018-06-13T17:04:44.920Z,2.20
2018-06-13T17:07:12.465Z,3.10
2018-06-13T17:09:39.808Z,2.47
2018-06-13T17:12:07.220Z,2.33
2018-06-13T17:14:34.582Z,3.00
2018-06-13T17:17:01.988Z,1.90
2018-06-13T17:19:29.313Z,2.80
2018-06-13T17:21:56.804Z,2.53
2018-06-13T17:24:24.256Z,2.30
2018-06-13T17:26:51.585Z,3.20
2018-06-13T17:29:18.950Z,2.17
2018-06-13T17:31:46.392Z,2.50
2018-06-13T17:34:13.875Z,2.00
2018-06-13T17:36:41.320Z,2.97
2018-06-13T17:39:10.299Z,2.30
2018-06-13T17:41:37.768Z,2.90
2018-06-13T17:44:05.209Z,2.57
2018-06-13T17:46:32.584Z,2.53
2018-06-13T17:49:00.906Z,2.90
2018-06-13T17:51:28.264Z,3.03
2018-06-13T17:53:55.891Z,2.37
2018-06-13T17:56:23.247Z,2.43
2018-06-13T17:58:50.599Z,2.67
2018-06-13T18:01:18.141Z,2.60
2018-06-13T18:03:45.602Z,2.47
2018-06-13T18:06:12.918Z,2.43
2018-06-13T18:08:40.236Z,2.60
2018-06-13T18:11:07.735Z,2.40
2018-06-13T18:13:35.073Z,2.80
2018-06-13T18:16:02.403Z,2.70
2018-06-13T18:18:30.017Z,2.77
2018-06-13T18:20:57.359Z,2.53
2018-06-13T18:23:24.760Z,2.67
2018-06-13T18:25:52.179Z,2.50
2018-06-13T18:28:19.523Z,2.63
2018-06-13T18:30:46.961Z,2.97
2018-06-13T18:33:14.409Z,2.70
2018-06-13T18:35:41.746Z,2.93
2018-06-13T18:38:09.121Z,2.43
2018-06-13T18:40:36.486Z,2.70
2018-06-13T18:43:03.835Z,2.77
2018-06-13T18:45:31.251Z,2.13
2018-06-13T18:47:58.577Z,2.57
2018-06-13T18:50:26.065Z,2.33
2018-06-13T18:52:53.518Z,3.00
2018-06-13T18:55:20.841Z,2.60
2018-06-13T18:57:48.251Z,2.30
2018-06-13T19:00:15.525Z,2.47
2018-06-13T19:02:42.974Z,3.70
2018-06-13T19:05:10.350Z,2.27
2018-06-13T19:07:37.700Z,2.83
2018-06-13T19:10:05.269Z,2.87
2018-06-13T19:12:32.699Z,2.70
2018-06-13T19:15:00.128Z,5.17
2018-06-13T19:17:27.504Z,3.13
2018-06-13T19:19:54.900Z,3.00
2018-06-13T19:22:22.263Z,2.70
2018-06-13T19:24:49.625Z,2.50
2018-06-13T19:27:17.291Z,3.13
2018-06-13T19:29:44.653Z,2.43
2018-06-13T19:32:12.075Z,2.40
2018-06-13T19:34:39.453Z,2.90
2018-06-13T19:37:06.808Z,2.40
2018-06-13T19:39:34.224Z,3.50
2018-06-13T19:42:01.699Z,2.60
2018-06-13T19:44:29.063Z,3.47
2018-06-13T19:48:00.017Z,3.60
2018-06-13T19:50:27.338Z,2.40
2018-06-13T19:53:00.257Z,3.00
2018-06-13T19:55:32.902Z,3.37
2018-06-13T19:58:00.288Z,3.30
2018-06-13T20:00:27.677Z,2.60
2018-06-13T20:03:00.515Z,2.83
2018-06-13T20:05:33.203Z,3.77
2018-06-13T20:08:00.575Z,3.27
2018-06-13T20:10:27.972Z,2.70
2018-06-13T20:13:00.684Z,2.90
2018-06-13T20:15:33.910Z,3.77
2018-06-13T20:18:06.533Z,2.80
2018-06-13T20:20:34.043Z,2.80
2018-06-13T20:23:01.496Z,3.13
2018-06-13T20:25:34.298Z,3.10
2018-06-13T20:28:06.980Z,3.50
2018-06-13T20:30:39.792Z,2.73
2018-06-13T20:33:07.184Z,3.23
2018-06-13T20:35:34.696Z,3.30
2018-06-13T20:38:02.127Z,3.50
2018-06-13T20:40:29.509Z,4.20
2018-06-13T20:42:56.852Z,3.70
2018-06-13T20:45:24.268Z,2.90
2018-06-13T20:47:51.758Z,3.20
2018-06-13T20:50:19.238Z,3.73
2018-06-13T20:52:46.803Z,3.60
2018-06-13T20:55:14.268Z,2.83
2018-06-13T20:57:41.896Z,4.00
2018-06-13T21:00:09.261Z,4.63
2018-06-13T21:02:36.610Z,3.73
2018-06-13T21:05:04.062Z,3.70
2018-06-13T21:07:31.444Z,3.53
2018-06-13T21:09:58.798Z,4.07
2018-06-13T21:12:26.241Z,3.40
2018-06-13T21:14:54.364Z,3.80
2018-06-13T21:17:21.690Z,3.83
2018-06-13T21:19:49.219Z,3.60
2018-06-13T21:22:16.533Z,3.73
2018-06-13T21:24:43.948Z,4.03
2018-06-13T21:27:11.514Z,4.97
2018-06-13T21:29:38.858Z,3.73
2018-06-13T21:32:06.274Z,4.50
2018-06-13T21:34:33.633Z,4.40
2018-06-13T21:37:01.087Z,3.93
2018-06-13T21:39:28.462Z,4.40
2018-06-13T21:41:55.945Z,3.80
2018-06-13T21:44:23.268Z,4.20
2018-06-13T21:46:50.732Z,4.60
2018-06-13T21:49:18.052Z,3.87
2018-06-13T21:51:45.395Z,3.93
2018-06-13T21:54:13.388Z,4.00
2018-06-13T21:56:40.802Z,4.10
2018-06-13T21:59:08.126Z,3.73
2018-06-13T22:01:35.469Z,5.07
2018-06-13T22:04:03.480Z,4.03
2018-06-13T22:06:30.975Z,4.83
2018-06-13T22:08:58.571Z,4.00
2018-06-13T22:11:26.143Z,5.07
2018-06-13T22:13:53.533Z,5.07
2018-06-13T22:16:20.839Z,3.97
2018-06-13T22:18:48.273Z,4.40
2018-06-13T22:21:15.623Z,4.77
2018-06-13T22:23:42.976Z,4.87
2018-06-13T22:26:10.524Z,4.10
2018-06-13T22:28:37.896Z,5.23
2018-06-13T22:31:05.371Z,4.43
2018-06-13T22:33:33.127Z,4.20
2018-06-13T22:36:00.663Z,5.10
2018-06-13T22:38:28.029Z,5.00
2018-06-13T22:40:55.389Z,4.37
2018-06-13T22:43:22.973Z,4.40
2018-06-13T22:45:50.424Z,5.53
2018-06-13T22:48:18.077Z,4.23
2018-06-13T22:50:45.369Z,5.23
2018-06-13T22:53:13.331Z,5.00
2018-06-13T22:55:40.615Z,3.30
2018-06-13T22:58:07.927Z,4.77
2018-06-13T23:00:42.723Z,4.27
2018-06-13T23:03:10.148Z,4.97
2018-06-13T23:05:37.524Z,5.43
2018-06-13T23:08:05.174Z,3.70
2018-06-13T23:10:32.769Z,4.30
2018-06-13T23:13:00.088Z,3.93
2018-06-13T23:15:27.527Z,4.20
2018-06-13T23:17:55.019Z,4.43
2018-06-13T23:20:22.558Z,3.53
2018-06-13T23:22:50.028Z,3.90
2018-06-13T23:25:17.396Z,4.40
2018-06-13T23:27:44.714Z,4.93
2018-06-13T23:30:12.101Z,4.47
2018-06-13T23:32:39.440Z,4.30
2018-06-13T23:35:06.769Z,4.07
2018-06-13T23:37:34.151Z,4.00
2018-06-13T23:40:01.685Z,4.67
2018-06-13T23:42:29.173Z,4.03
2018-06-13T23:44:56.487Z,4.50
2018-06-13T23:47:24.070Z,5.10
2018-06-13T23:49:51.443Z,5.00
2018-06-13T23:52:18.788Z,3.70
2018-06-13T23:54:46.153Z,4.50
2018-06-13T23:57:13.492Z,3.70
2018-06-13T23:59:40.848Z,4.80
